createdAt,value
2023-08-13T00:00:11.332Z,90.59
2023-08-13T00:00:41.327Z,90.79
2023-08-13T00:01:11.351Z,90.79
2023-08-13T00:01:41.364Z,90.69
2023-08-13T00:02:11.367Z,90.69
2023-08-13T00:02:41.413Z,90.69
2023-08-13T00:03:11.451Z,90.69
2023-08-13T00:03:41.489Z,90.69
2023-08-13T00:04:11.365Z,90.59
2023-08-13T00:04:41.368Z,90.59
2023-08-13T00:05:11.283Z,90.59
2023-08-13T00:05:41.361Z,90.59
2023-08-13T00:06:11.268Z,90.49
2023-08-13T00:06:41.876Z,90.49
2023-08-13T00:07:11.270Z,90.49
2023-08-13T00:07:41.252Z,90.49
2023-08-13T00:08:11.283Z,90.49
2023-08-13T00:08:41.264Z,90.49
2023-08-13T00:09:11.245Z,90.39
2023-08-13T00:09:41.279Z,90.39
2023-08-13T00:10:11.217Z,90.39
2023-08-13T00:10:41.217Z,90.39
2023-08-13T00:11:11.245Z,90.39
2023-08-13T00:11:41.329Z,90.39
2023-08-13T00:12:11.558Z,90.29
2023-08-13T00:12:41.214Z,90.29
2023-08-13T00:13:11.220Z,90.29
2023-08-13T00:13:41.208Z,90.29
2023-08-13T00:14:11.196Z,90.19
2023-08-13T00:14:41.200Z,90.19
2023-08-13T00:15:11.178Z,90.09
2023-08-13T00:15:41.890Z,90.09
2023-08-13T00:16:11.902Z,90.09
2023-08-13T00:16:41.204Z,90.09
2023-08-13T00:17:11.169Z,90.09
2023-08-13T00:17:41.263Z,90.09
2023-08-13T00:18:11.170Z,90.09
2023-08-13T00:18:41.147Z,90.09
2023-08-13T00:19:11.134Z,90.09
2023-08-13T00:19:41.156Z,90.09
2023-08-13T00:20:11.109Z,90.09
2023-08-13T00:20:41.129Z,90.19
2023-08-13T00:21:11.119Z,90.09
2023-08-13T00:21:46.477Z,90.09
2023-08-13T00:22:11.096Z,89.99
2023-08-13T00:22:41.131Z,90.09
2023-08-13T00:23:11.126Z,90.09
2023-08-13T00:23:41.137Z,89.99
2023-08-13T00:24:11.073Z,89.99
2023-08-13T00:24:41.076Z,89.89
2023-08-13T00:25:11.108Z,89.89
2023-08-13T00:25:41.207Z,89.89
2023-08-13T00:26:11.272Z,89.89
2023-08-13T00:26:41.059Z,89.79
2023-08-13T00:27:11.070Z,89.79
2023-08-13T00:27:41.091Z,89.69
2023-08-13T00:28:11.054Z,89.69
2023-08-13T00:28:41.066Z,89.59
2023-08-13T00:29:11.033Z,89.48
2023-08-13T00:29:41.021Z,89.48
2023-08-13T00:30:11.071Z,89.48
2023-08-13T00:30:40.994Z,89.39
2023-08-13T00:31:11.035Z,89.39
2023-08-13T00:31:41.942Z,89.39
2023-08-13T00:32:11.016Z,89.39
2023-08-13T00:32:41.015Z,89.28
2023-08-13T00:33:11.055Z,89.18
2023-08-13T00:33:40.991Z,89.08
2023-08-13T00:34:10.960Z,89.08
2023-08-13T00:34:40.968Z,89.08
2023-08-13T00:35:10.990Z,88.98
2023-08-13T00:35:40.959Z,88.98
2023-08-13T00:36:10.939Z,88.88
2023-08-13T00:36:40.936Z,88.88
2023-08-13T00:37:10.978Z,88.98
2023-08-13T00:37:40.922Z,88.98
2023-08-13T00:38:10.926Z,89.12
2023-08-13T00:38:41.016Z,89.23
2023-08-13T00:39:10.923Z,89.23
2023-08-13T00:39:41.013Z,89.32
2023-08-13T00:40:11.111Z,89.32
2023-08-13T00:40:40.891Z,89.32
2023-08-13T00:41:10.925Z,89.43
2023-08-13T00:41:40.901Z,89.43
2023-08-13T00:42:10.868Z,89.43
2023-08-13T00:42:40.902Z,89.32
2023-08-13T00:43:10.876Z,89.43
2023-08-13T00:43:40.863Z,89.32
2023-08-13T00:44:10.882Z,89.43
2023-08-13T00:44:40.846Z,89.32
2023-08-13T00:45:10.869Z,89.32
2023-08-13T00:45:40.984Z,89.32
2023-08-13T00:46:10.875Z,89.43
2023-08-13T00:46:41.393Z,89.32
2023-08-13T00:47:10.848Z,89.23
2023-08-13T00:47:40.879Z,89.32
2023-08-13T00:48:10.844Z,89.37
2023-08-13T00:48:40.822Z,89.37
2023-08-13T00:49:40.809Z,89.37
2023-08-13T00:50:10.843Z,89.37
2023-08-13T00:50:40.808Z,89.26
2023-08-13T00:51:10.825Z,89.17
2023-08-13T00:51:40.782Z,89.17
2023-08-13T00:52:10.791Z,89.06
2023-08-13T00:52:40.742Z,88.86
2023-08-13T00:53:10.796Z,88.86
2023-08-13T00:53:40.884Z,88.86
2023-08-13T00:54:10.933Z,88.86
2023-08-13T00:54:40.737Z,88.76
2023-08-13T00:55:10.771Z,88.72
2023-08-13T00:55:40.735Z,88.52
2023-08-13T00:56:10.740Z,88.32
2023-08-13T00:56:40.717Z,88.36
2023-08-13T00:57:10.744Z,88.36
2023-08-13T00:57:40.705Z,88.12
2023-08-13T00:58:10.743Z,88.12
2023-08-13T00:58:40.693Z,88.12
2023-08-13T00:59:10.687Z,88.12
2023-08-13T00:59:41.396Z,88.12
2023-08-13T01:00:10.682Z,88.06
2023-08-13T01:00:40.689Z,88.02
2023-08-13T01:01:10.725Z,88.12
2023-08-13T01:01:40.721Z,88.12
2023-08-13T01:02:11.403Z,88.02
2023-08-13T01:02:40.749Z,88.02
2023-08-13T01:03:11.427Z,88.02
2023-08-13T01:03:40.668Z,88.02
2023-08-13T01:04:10.730Z,87.92
2023-08-13T01:04:40.661Z,87.92
2023-08-13T01:05:10.711Z,87.92
2023-08-13T01:05:40.620Z,87.92
2023-08-13T01:06:10.608Z,88.02
2023-08-13T01:06:40.604Z,88.02
2023-08-13T01:07:10.598Z,88.16
2023-08-13T01:07:40.714Z,88.16
2023-08-13T01:08:10.802Z,88.26
2023-08-13T01:08:40.602Z,88.26
2023-08-13T01:09:10.604Z,88.26
2023-08-13T01:09:40.648Z,88.36
2023-08-13T01:10:10.645Z,88.46
2023-08-13T01:10:40.576Z,88.46
2023-08-13T01:11:10.582Z,88.56
2023-08-13T01:11:40.565Z,88.56
2023-08-13T01:12:10.571Z,88.66
2023-08-13T01:12:40.548Z,88.66
2023-08-13T01:13:10.551Z,88.76
2023-08-13T01:13:40.565Z,88.76
2023-08-13T01:14:10.585Z,88.76
2023-08-13T01:14:40.530Z,88.76
2023-08-13T01:15:10.536Z,88.76
2023-08-13T01:15:40.672Z,88.76
2023-08-13T01:16:10.635Z,88.76
2023-08-13T01:16:40.484Z,88.76
2023-08-13T01:17:11.393Z,88.76
2023-08-13T01:17:40.522Z,88.76
2023-08-13T01:18:10.570Z,88.76
2023-08-13T01:18:40.543Z,88.76
2023-08-13T01:19:10.463Z,88.76
2023-08-13T01:19:40.513Z,88.76
2023-08-13T01:20:10.506Z,88.76
2023-08-13T01:20:40.450Z,88.86
2023-08-13T01:21:10.438Z,88.96
2023-08-13T01:21:40.581Z,88.96
2023-08-13T01:22:10.642Z,88.96
2023-08-13T01:22:40.435Z,89.06
2023-08-13T01:23:10.414Z,89.06
2023-08-13T01:23:40.441Z,89.06
2023-08-13T01:24:10.439Z,89.06
2023-08-13T01:24:40.423Z,88.96
2023-08-13T01:25:10.437Z,89.06
2023-08-13T01:25:40.406Z,89.06
2023-08-13T01:26:10.382Z,88.96
2023-08-13T01:26:40.894Z,88.96
2023-08-13T01:27:10.385Z,88.96
2023-08-13T01:27:40.398Z,88.96
2023-08-13T01:28:10.426Z,88.96
2023-08-13T01:28:40.381Z,88.96
2023-08-13T01:29:10.355Z,88.86
2023-08-13T01:29:40.385Z,88.76
2023-08-13T01:30:10.408Z,88.76
2023-08-13T01:30:40.422Z,88.76
2023-08-13T01:31:10.362Z,88.66
2023-08-13T01:31:40.365Z,88.66
2023-08-13T01:32:10.362Z,88.66
2023-08-13T01:32:40.927Z,88.66
2023-08-13T01:33:10.415Z,88.76
2023-08-13T01:33:40.349Z,88.66
2023-08-13T01:34:10.352Z,88.76
2023-08-13T01:34:40.336Z,88.76
2023-08-13T01:35:10.336Z,88.76
2023-08-13T01:35:40.412Z,88.76
2023-08-13T01:36:10.541Z,88.86
2023-08-13T01:36:40.321Z,88.86
2023-08-13T01:37:10.297Z,88.86
2023-08-13T01:37:40.337Z,88.86
2023-08-13T01:38:10.269Z,88.86
2023-08-13T01:38:40.257Z,88.86
2023-08-13T01:39:10.247Z,88.86
2023-08-13T01:39:40.309Z,88.86
2023-08-13T01:40:10.319Z,88.86
2023-08-13T01:40:40.317Z,88.86
2023-08-13T01:41:10.274Z,88.86
2023-08-13T01:41:40.239Z,88.86
2023-08-13T01:42:10.248Z,88.96
2023-08-13T01:42:40.250Z,88.96
2023-08-13T01:43:10.230Z,88.96
2023-08-13T01:43:40.268Z,88.96
2023-08-13T01:44:10.244Z,88.96
2023-08-13T01:44:40.245Z,88.96
2023-08-13T01:45:10.225Z,88.96
2023-08-13T01:45:40.233Z,89.06
2023-08-13T01:46:10.204Z,89.06
2023-08-13T01:46:40.214Z,89.06
2023-08-13T01:47:10.198Z,89.06
2023-08-13T01:47:40.257Z,89.06
2023-08-13T01:48:10.214Z,89.06
2023-08-13T01:48:40.207Z,89.06
2023-08-13T01:49:10.182Z,89.06
2023-08-13T01:49:40.296Z,89.17
2023-08-13T01:50:10.335Z,89.17
2023-08-13T01:50:40.290Z,89.06
2023-08-13T01:51:10.122Z,89.06
2023-08-13T01:51:40.916Z,89.06
2023-08-13T01:52:10.107Z,89.17
2023-08-13T01:52:40.137Z,89.06
2023-08-13T01:53:10.121Z,89.06
2023-08-13T01:53:40.128Z,89.06
2023-08-13T01:54:10.152Z,88.96
2023-08-13T01:54:40.115Z,89.06
2023-08-13T01:55:10.083Z,88.96
2023-08-13T01:55:40.083Z,88.96
2023-08-13T01:56:10.183Z,88.96
2023-08-13T01:56:40.922Z,88.96
2023-08-13T01:57:10.057Z,88.96
2023-08-13T01:57:40.046Z,88.96
2023-08-13T01:58:10.064Z,88.96
2023-08-13T01:58:40.045Z,89.06
2023-08-13T01:59:10.039Z,88.96
2023-08-13T01:59:40.068Z,88.96
2023-08-13T02:00:10.064Z,88.96
2023-08-13T02:00:40.042Z,88.96
2023-08-13T02:01:10.094Z,88.96
2023-08-13T02:01:40.027Z,88.96
2023-08-13T02:02:10.014Z,88.86
2023-08-13T02:02:40.064Z,88.96
2023-08-13T02:03:10.011Z,88.86
2023-08-13T02:03:40.131Z,88.96
2023-08-13T02:04:10.204Z,88.96
2023-08-13T02:04:40.055Z,88.96
2023-08-13T02:05:10.153Z,88.86
2023-08-13T02:05:39.993Z,88.86
2023-08-13T02:06:10.046Z,88.86
2023-08-13T02:06:40.001Z,88.96
2023-08-13T02:07:10.027Z,88.86
2023-08-13T02:07:40.010Z,88.86
2023-08-13T02:08:09.966Z,88.86
2023-08-13T02:08:39.964Z,88.86
2023-08-13T02:09:09.967Z,88.86
2023-08-13T02:09:39.924Z,88.96
2023-08-13T02:10:09.959Z,88.86
2023-08-13T02:10:39.940Z,88.86
2023-08-13T02:11:09.976Z,88.66
2023-08-13T02:11:39.916Z,88.66
2023-08-13T02:12:09.948Z,88.56
2023-08-13T02:12:39.902Z,88.36
2023-08-13T02:13:09.950Z,88.36
2023-08-13T02:13:39.870Z,88.36
2023-08-13T02:14:09.912Z,88.36
2023-08-13T02:14:39.871Z,88.36
2023-08-13T02:15:09.915Z,88.46
2023-08-13T02:15:39.946Z,88.26
2023-08-13T02:16:09.869Z,87.96
2023-08-13T02:16:39.919Z,87.96
2023-08-13T02:17:09.856Z,87.96
2023-08-13T02:17:40.092Z,87.96
2023-08-13T02:18:10.079Z,87.85
2023-08-13T02:18:39.841Z,87.96
2023-08-13T02:19:09.850Z,87.96
2023-08-13T02:19:39.853Z,87.96
2023-08-13T02:20:09.842Z,88.00
2023-08-13T02:20:39.809Z,88.00
2023-08-13T02:21:09.826Z,88.00
2023-08-13T02:21:39.812Z,87.96
2023-08-13T02:22:09.826Z,88.10
2023-08-13T02:22:39.789Z,88.20
2023-08-13T02:23:09.776Z,88.10
2023-08-13T02:23:39.798Z,88.20
2023-08-13T02:24:09.755Z,88.20
2023-08-13T02:24:39.755Z,88.20
2023-08-13T02:25:09.846Z,88.20
2023-08-13T02:25:39.745Z,88.20
2023-08-13T02:26:09.743Z,88.20
2023-08-13T02:26:39.776Z,88.10
2023-08-13T02:27:09.770Z,88.10
2023-08-13T02:27:39.739Z,88.10
2023-08-13T02:28:09.709Z,88.00
2023-08-13T02:28:39.720Z,88.10
2023-08-13T02:29:09.704Z,88.00
2023-08-13T02:29:39.770Z,88.00
2023-08-13T02:30:09.751Z,88.00
2023-08-13T02:30:39.786Z,88.00
2023-08-13T02:31:09.704Z,88.00
2023-08-13T02:31:39.809Z,88.10
2023-08-13T02:32:09.900Z,88.10
2023-08-13T02:32:39.708Z,88.10
2023-08-13T02:33:09.696Z,88.20
2023-08-13T02:33:39.647Z,88.10
2023-08-13T02:34:09.644Z,88.20
2023-08-13T02:34:39.637Z,88.10
2023-08-13T02:35:09.662Z,88.00
2023-08-13T02:35:39.700Z,88.00
2023-08-13T02:36:09.652Z,88.00
2023-08-13T02:36:39.631Z,88.00
2023-08-13T02:37:09.638Z,88.00
2023-08-13T02:37:39.618Z,87.90
2023-08-13T02:38:09.616Z,87.90
2023-08-13T02:38:39.622Z,87.90
2023-08-13T02:39:09.664Z,87.90
2023-08-13T02:39:39.598Z,87.90
2023-08-13T02:40:09.703Z,87.90
2023-08-13T02:40:39.645Z,87.90
2023-08-13T02:41:09.588Z,87.90
2023-08-13T02:41:39.581Z,87.80
2023-08-13T02:42:09.574Z,87.90
2023-08-13T02:42:39.569Z,87.90
2023-08-13T02:43:09.551Z,87.90
2023-08-13T02:43:39.579Z,87.90
2023-08-13T02:44:09.544Z,88.00
2023-08-13T02:44:39.555Z,88.00
2023-08-13T02:45:09.529Z,88.00
2023-08-13T02:45:39.659Z,88.00
2023-08-13T02:46:09.767Z,88.00
2023-08-13T02:46:39.559Z,87.90
2023-08-13T02:47:09.556Z,88.00
2023-08-13T02:47:39.767Z,88.00
2023-08-13T02:48:09.598Z,87.90
2023-08-13T02:48:39.580Z,88.00
2023-08-13T02:49:09.545Z,88.00
2023-08-13T02:49:39.509Z,88.00
2023-08-13T02:50:09.487Z,88.00
2023-08-13T02:50:39.545Z,88.00
2023-08-13T02:51:10.445Z,88.10
2023-08-13T02:51:39.461Z,88.10
2023-08-13T02:52:09.696Z,88.10
2023-08-13T02:52:39.464Z,88.10
2023-08-13T02:53:09.471Z,88.10
2023-08-13T02:53:39.457Z,88.10
2023-08-13T02:54:09.461Z,88.00
2023-08-13T02:54:39.494Z,88.10
2023-08-13T02:55:09.444Z,88.10
2023-08-13T02:55:39.431Z,88.10
2023-08-13T02:56:09.518Z,88.10
2023-08-13T02:56:39.923Z,88.10
2023-08-13T02:57:09.391Z,88.10
2023-08-13T02:57:43.539Z,88.10
2023-08-13T02:58:10.740Z,88.10
2023-08-13T02:58:39.392Z,88.10
2023-08-13T02:59:09.383Z,88.10
2023-08-13T02:59:39.526Z,88.10
2023-08-13T03:00:09.588Z,88.10
2023-08-13T03:00:39.373Z,88.10
2023-08-13T03:01:09.398Z,88.10
2023-08-13T03:01:39.397Z,88.10
2023-08-13T03:02:09.397Z,88.20
2023-08-13T03:02:39.388Z,88.10
2023-08-13T03:03:09.490Z,88.10
2023-08-13T03:03:50.601Z,88.20
2023-08-13T03:04:09.393Z,88.20
2023-08-13T03:04:39.360Z,88.20
2023-08-13T03:05:09.315Z,88.20
2023-08-13T03:05:39.317Z,88.20
2023-08-13T03:06:09.930Z,88.20
2023-08-13T03:06:39.307Z,88.20
2023-08-13T03:07:09.281Z,88.30
2023-08-13T03:07:39.308Z,88.30
2023-08-13T03:08:09.274Z,88.30
2023-08-13T03:08:39.276Z,88.30
2023-08-13T03:09:09.260Z,88.20
2023-08-13T03:09:39.265Z,88.30
2023-08-13T03:10:09.289Z,88.30
2023-08-13T03:10:39.301Z,88.40
2023-08-13T03:11:09.276Z,88.40
2023-08-13T03:11:39.248Z,88.40
2023-08-13T03:12:09.318Z,88.40
2023-08-13T03:12:39.236Z,88.40
2023-08-13T03:13:09.264Z,88.40
2023-08-13T03:13:39.357Z,88.40
2023-08-13T03:14:09.436Z,88.50
2023-08-13T03:14:39.228Z,88.50
2023-08-13T03:15:09.247Z,88.50
2023-08-13T03:15:39.194Z,88.50
2023-08-13T03:16:09.240Z,88.50
2023-08-13T03:16:39.231Z,88.50
2023-08-13T03:17:09.214Z,88.50
2023-08-13T03:17:39.218Z,88.60
2023-08-13T03:18:09.183Z,88.60
2023-08-13T03:18:39.176Z,88.60
2023-08-13T03:19:09.152Z,88.60
2023-08-13T03:19:39.174Z,88.60
2023-08-13T03:20:09.183Z,88.70
2023-08-13T03:20:39.165Z,88.70
2023-08-13T03:21:09.443Z,88.70
2023-08-13T03:21:39.200Z,88.70
2023-08-13T03:22:09.138Z,88.70
2023-08-13T03:22:39.187Z,88.81
2023-08-13T03:23:09.197Z,88.81
2023-08-13T03:23:39.293Z,88.90
2023-08-13T03:24:09.974Z,88.90
2023-08-13T03:24:39.267Z,88.81
2023-08-13T03:25:09.153Z,88.90
2023-08-13T03:25:39.147Z,88.90
2023-08-13T03:26:09.104Z,88.90
2023-08-13T03:26:39.079Z,88.90
2023-08-13T03:27:09.088Z,88.90
2023-08-13T03:27:39.212Z,88.81
2023-08-13T03:28:09.276Z,88.81
2023-08-13T03:28:39.026Z,88.70
2023-08-13T03:29:09.075Z,88.81
2023-08-13T03:29:39.039Z,88.81
2023-08-13T03:30:09.043Z,88.81
2023-08-13T03:30:39.040Z,88.81
2023-08-13T03:31:08.986Z,88.90
2023-08-13T03:31:39.973Z,88.90
2023-08-13T03:32:09.033Z,88.90
2023-08-13T03:32:39.050Z,88.81
2023-08-13T03:33:08.962Z,88.70
2023-08-13T03:33:38.964Z,88.70
2023-08-13T03:34:08.948Z,88.60
2023-08-13T03:34:38.957Z,88.60
2023-08-13T03:35:08.975Z,88.60
2023-08-13T03:35:38.978Z,88.60
2023-08-13T03:36:09.001Z,88.60
2023-08-13T03:36:38.983Z,88.60
2023-08-13T03:37:08.945Z,88.70
2023-08-13T03:37:38.936Z,88.60
2023-08-13T03:38:08.974Z,88.60
2023-08-13T03:38:38.932Z,88.50
2023-08-13T03:39:08.946Z,88.50
2023-08-13T03:39:38.953Z,88.60
2023-08-13T03:40:08.909Z,88.60
2023-08-13T03:40:39.498Z,88.60
2023-08-13T03:41:08.939Z,88.40
2023-08-13T03:41:39.029Z,88.40
2023-08-13T03:42:09.155Z,88.40
2023-08-13T03:42:38.857Z,88.40
2023-08-13T03:43:08.856Z,88.20
2023-08-13T03:43:38.912Z,88.30
2023-08-13T03:44:08.933Z,88.16
2023-08-13T03:44:39.504Z,88.36
2023-08-13T03:45:08.958Z,88.16
2023-08-13T03:45:39.133Z,88.16
2023-08-13T03:46:09.363Z,88.16
2023-08-13T03:46:39.052Z,88.16
2023-08-13T03:47:09.014Z,88.16
2023-08-13T03:47:38.893Z,87.96
2023-08-13T03:48:09.626Z,87.85
2023-08-13T03:48:39.073Z,87.85
2023-08-13T03:49:08.883Z,87.76
2023-08-13T03:49:38.810Z,87.55
2023-08-13T03:50:08.802Z,87.65
2023-08-13T03:50:38.774Z,87.45
2023-08-13T03:51:08.832Z,87.45
2023-08-13T03:51:38.795Z,87.35
2023-08-13T03:52:08.871Z,87.35
2023-08-13T03:52:38.766Z,87.25
2023-08-13T03:53:08.778Z,87.25
2023-08-13T03:53:38.742Z,87.25
2023-08-13T03:54:10.384Z,87.15
2023-08-13T03:54:38.746Z,86.85
2023-08-13T03:55:08.759Z,86.85
2023-08-13T03:55:38.915Z,86.95
2023-08-13T03:56:08.947Z,86.95
2023-08-13T03:56:38.749Z,86.85
2023-08-13T03:57:08.723Z,86.85
2023-08-13T03:57:38.724Z,86.75
2023-08-13T03:58:08.704Z,86.65
2023-08-13T03:58:38.708Z,86.55
2023-08-13T03:59:08.701Z,86.55
2023-08-13T03:59:38.735Z,86.75
2023-08-13T04:00:08.687Z,86.75
2023-08-13T04:00:38.689Z,86.65
2023-08-13T04:01:09.294Z,86.75
2023-08-13T04:01:39.024Z,86.75
2023-08-13T04:02:08.761Z,86.75
2023-08-13T04:02:38.773Z,86.75
2023-08-13T04:03:23.414Z,86.75
2023-08-13T04:03:38.692Z,86.75
2023-08-13T04:04:08.720Z,86.85
2023-08-13T04:04:38.698Z,86.24
2023-08-13T04:05:08.612Z,86.15
2023-08-13T04:05:38.708Z,86.24
2023-08-13T04:06:08.649Z,86.24
2023-08-13T04:06:38.705Z,86.24
2023-08-13T04:07:08.602Z,86.35
2023-08-13T04:07:38.618Z,86.24
2023-08-13T04:08:08.629Z,86.04
2023-08-13T04:08:38.658Z,86.04
2023-08-13T04:09:08.618Z,86.04
2023-08-13T04:09:38.706Z,86.15
2023-08-13T04:10:08.785Z,86.15
2023-08-13T04:10:38.596Z,86.04
2023-08-13T04:11:08.586Z,85.84
2023-08-13T04:11:38.613Z,85.84
2023-08-13T04:12:08.559Z,85.84
2023-08-13T04:12:38.557Z,85.84
2023-08-13T04:13:08.546Z,85.84
2023-08-13T04:13:38.550Z,85.14
2023-08-13T04:14:08.550Z,85.24
2023-08-13T04:14:38.541Z,85.34
2023-08-13T04:15:08.585Z,85.24
2023-08-13T04:15:38.554Z,85.14
2023-08-13T04:16:08.565Z,85.14
2023-08-13T04:16:38.548Z,85.24
2023-08-13T04:17:08.552Z,85.24
2023-08-13T04:17:38.506Z,85.14
2023-08-13T04:18:08.570Z,85.03
2023-08-13T04:18:38.537Z,85.03
2023-08-13T04:19:08.476Z,85.24
2023-08-13T04:19:38.459Z,85.10
2023-08-13T04:20:08.465Z,85.03
2023-08-13T04:20:38.466Z,85.10
2023-08-13T04:21:08.453Z,85.24
2023-08-13T04:21:38.460Z,85.20
2023-08-13T04:22:08.467Z,85.20
2023-08-13T04:22:38.439Z,85.10
2023-08-13T04:23:08.508Z,85.10
2023-08-13T04:23:38.583Z,85.10
2023-08-13T04:24:08.618Z,85.10
2023-08-13T04:24:38.431Z,85.00
2023-08-13T04:25:08.463Z,84.89
2023-08-13T04:25:38.487Z,84.89
2023-08-13T04:26:08.416Z,84.49
2023-08-13T04:26:39.332Z,84.39
2023-08-13T04:27:08.394Z,84.49
2023-08-13T04:27:38.952Z,84.80
2023-08-13T04:28:08.465Z,84.89
2023-08-13T04:28:38.398Z,84.69
2023-08-13T04:29:08.437Z,84.19
2023-08-13T04:29:38.355Z,84.29
2023-08-13T04:30:08.369Z,84.39
2023-08-13T04:30:38.353Z,84.39
2023-08-13T04:31:08.383Z,84.39
2023-08-13T04:31:38.396Z,84.39
2023-08-13T04:32:08.350Z,84.19
2023-08-13T04:32:38.341Z,84.29
2023-08-13T04:33:08.406Z,83.99
2023-08-13T04:33:38.402Z,83.99
2023-08-13T04:34:08.344Z,83.99
2023-08-13T04:34:38.297Z,84.09
2023-08-13T04:35:08.678Z,84.09
2023-08-13T04:35:38.707Z,84.09
2023-08-13T04:36:08.353Z,83.99
2023-08-13T04:36:38.317Z,83.79
2023-08-13T04:37:08.276Z,83.79
2023-08-13T04:37:38.396Z,83.69
2023-08-13T04:38:08.502Z,83.69
2023-08-13T04:38:38.325Z,83.79
2023-08-13T04:39:08.285Z,83.89
2023-08-13T04:39:38.272Z,83.89
2023-08-13T04:40:08.230Z,83.89
2023-08-13T04:40:38.242Z,83.79
2023-08-13T04:41:08.240Z,83.28
2023-08-13T04:41:38.311Z,83.28
2023-08-13T04:42:08.263Z,83.39
2023-08-13T04:42:38.258Z,83.48
2023-08-13T04:43:08.212Z,83.48
2023-08-13T04:43:38.211Z,83.48
2023-08-13T04:44:08.193Z,83.39
2023-08-13T04:44:38.222Z,83.39
2023-08-13T04:45:08.175Z,83.48
2023-08-13T04:45:38.275Z,83.59
2023-08-13T04:46:08.206Z,83.48
2023-08-13T04:46:38.172Z,83.39
2023-08-13T04:47:08.211Z,83.48
2023-08-13T04:47:38.211Z,83.59
2023-08-13T04:48:08.290Z,82.78
2023-08-13T04:48:38.142Z,82.78
2023-08-13T04:49:08.178Z,82.98
2023-08-13T04:49:38.151Z,83.08
2023-08-13T04:50:08.141Z,83.18
2023-08-13T04:50:38.137Z,83.28
2023-08-13T04:51:08.139Z,83.18
2023-08-13T04:51:38.244Z,83.08
2023-08-13T04:52:08.307Z,82.98
2023-08-13T04:52:38.097Z,83.08
2023-08-13T04:53:08.171Z,82.88
2023-08-13T04:53:38.124Z,82.98
2023-08-13T04:54:08.093Z,82.98
2023-08-13T04:54:38.106Z,83.08
2023-08-13T04:55:08.091Z,83.08
2023-08-13T04:55:38.070Z,83.18
2023-08-13T04:56:08.077Z,83.08
2023-08-13T04:56:38.109Z,83.08
2023-08-13T04:57:08.053Z,82.88
2023-08-13T04:57:38.065Z,82.78
2023-08-13T04:58:08.982Z,82.88
2023-08-13T04:58:38.033Z,83.08
2023-08-13T04:59:08.055Z,82.88
2023-08-13T04:59:38.033Z,82.98
2023-08-13T05:00:08.017Z,82.98
2023-08-13T05:00:38.050Z,83.08
2023-08-13T05:01:08.103Z,83.18
2023-08-13T05:01:38.118Z,83.18
2023-08-13T05:02:08.013Z,83.18
2023-08-13T05:02:38.060Z,83.18
2023-08-13T05:03:08.013Z,83.08
2023-08-13T05:03:37.984Z,83.18
2023-08-13T05:04:08.072Z,82.98
2023-08-13T05:04:38.012Z,82.88
2023-08-13T05:05:08.011Z,82.88
2023-08-13T05:05:38.095Z,82.88
2023-08-13T05:06:08.180Z,82.78
2023-08-13T05:06:37.937Z,82.78
2023-08-13T05:07:08.042Z,82.78
2023-08-13T05:07:37.956Z,82.88
2023-08-13T05:08:08.034Z,82.98
2023-08-13T05:08:37.931Z,83.08
2023-08-13T05:09:07.981Z,82.98
2023-08-13T05:09:37.934Z,82.88
2023-08-13T05:10:07.940Z,82.68
2023-08-13T05:10:37.935Z,82.68
2023-08-13T05:11:07.920Z,82.78
2023-08-13T05:11:38.512Z,82.88
2023-08-13T05:12:07.982Z,82.88
2023-08-13T05:12:37.906Z,82.68
2023-08-13T05:13:07.917Z,82.58
2023-08-13T05:13:37.930Z,82.48
2023-08-13T05:14:07.874Z,82.48
2023-08-13T05:14:37.925Z,82.58
2023-08-13T05:15:07.914Z,82.68
2023-08-13T05:15:37.869Z,82.68
2023-08-13T05:16:07.881Z,82.68
2023-08-13T05:16:37.862Z,82.58
2023-08-13T05:17:07.827Z,82.48
2023-08-13T05:17:37.950Z,82.28
2023-08-13T05:18:07.871Z,82.28
2023-08-13T05:18:37.816Z,82.28
2023-08-13T05:19:07.813Z,82.48
2023-08-13T05:19:37.942Z,82.07
2023-08-13T05:20:08.044Z,82.18
2023-08-13T05:20:37.807Z,82.07
2023-08-13T05:21:08.475Z,82.07
2023-08-13T05:21:37.806Z,82.18
2023-08-13T05:22:07.829Z,81.98
2023-08-13T05:22:37.840Z,82.07
2023-08-13T05:23:07.766Z,82.07
2023-08-13T05:23:37.768Z,82.07
2023-08-13T05:24:07.760Z,82.07
2023-08-13T05:24:37.760Z,81.98
2023-08-13T05:25:07.755Z,82.07
2023-08-13T05:25:37.782Z,81.87
2023-08-13T05:26:07.740Z,81.98
2023-08-13T05:26:37.727Z,81.57
2023-08-13T05:27:07.738Z,81.37
2023-08-13T05:27:37.735Z,81.47
2023-08-13T05:28:07.755Z,81.47
2023-08-13T05:28:37.725Z,81.57
2023-08-13T05:29:07.728Z,81.57
2023-08-13T05:29:37.730Z,81.27
2023-08-13T05:30:07.725Z,81.27
2023-08-13T05:30:37.752Z,81.37
2023-08-13T05:31:07.714Z,81.37
2023-08-13T05:31:37.679Z,81.37
2023-08-13T05:32:07.683Z,81.37
2023-08-13T05:32:37.737Z,81.47
2023-08-13T05:33:07.782Z,81.47
2023-08-13T05:33:37.812Z,81.47
2023-08-13T05:34:07.858Z,81.47
2023-08-13T05:34:37.694Z,81.27
2023-08-13T05:35:07.651Z,81.37
2023-08-13T05:35:37.629Z,81.17
2023-08-13T05:36:07.635Z,80.87
2023-08-13T05:36:37.689Z,80.77
2023-08-13T05:37:07.607Z,80.16
2023-08-13T05:37:37.609Z,80.26
2023-08-13T05:38:07.610Z,80.57
2023-08-13T05:38:37.599Z,80.66
2023-08-13T05:39:07.614Z,80.77
2023-08-13T05:39:37.606Z,80.77
2023-08-13T05:40:07.611Z,80.83
2023-08-13T05:40:37.593Z,80.83
2023-08-13T05:41:07.576Z,80.73
2023-08-13T05:41:37.550Z,80.52
2023-08-13T05:42:07.604Z,80.52
2023-08-13T05:42:37.550Z,80.52
2023-08-13T05:43:07.595Z,80.63
2023-08-13T05:43:37.550Z,80.73
2023-08-13T05:44:07.538Z,80.83
2023-08-13T05:44:37.522Z,80.83
2023-08-13T05:45:07.545Z,80.83
2023-08-13T05:45:37.535Z,80.73
2023-08-13T05:46:07.531Z,80.52
2023-08-13T05:46:37.510Z,80.22
2023-08-13T05:47:07.504Z,80.43
2023-08-13T05:47:37.654Z,80.52
2023-08-13T05:48:07.747Z,80.43
2023-08-13T05:48:37.485Z,80.32
2023-08-13T05:49:07.520Z,80.43
2023-08-13T05:49:37.471Z,80.43
2023-08-13T05:50:07.475Z,80.43
2023-08-13T05:50:37.477Z,80.52
2023-08-13T05:51:07.459Z,80.63
2023-08-13T05:51:37.446Z,80.73
2023-08-13T05:52:07.491Z,80.73
2023-08-13T05:52:37.464Z,80.73
2023-08-13T05:53:07.462Z,80.73
2023-08-13T05:53:37.480Z,80.73
2023-08-13T05:54:07.423Z,80.73
2023-08-13T05:54:37.435Z,80.73
2023-08-13T05:55:07.420Z,80.83
2023-08-13T05:55:37.511Z,80.73
2023-08-13T05:56:07.399Z,80.73
2023-08-13T05:56:37.419Z,80.63
2023-08-13T05:57:07.408Z,80.63
2023-08-13T05:57:37.403Z,80.52
2023-08-13T05:58:07.400Z,80.52
2023-08-13T05:58:37.404Z,80.32
2023-08-13T05:59:07.380Z,80.22
2023-08-13T05:59:37.375Z,80.12
2023-08-13T06:00:07.384Z,80.32
2023-08-13T06:00:37.386Z,80.22
2023-08-13T06:01:07.387Z,80.22
2023-08-13T06:01:37.470Z,80.22
2023-08-13T06:02:07.577Z,80.22
2023-08-13T06:02:37.359Z,80.22
2023-08-13T06:03:07.452Z,80.19
2023-08-13T06:03:37.329Z,80.19
2023-08-13T06:04:07.331Z,80.29
2023-08-13T06:04:37.378Z,80.39
2023-08-13T06:05:07.339Z,80.39
2023-08-13T06:05:37.310Z,80.49
2023-08-13T06:06:07.305Z,80.19
2023-08-13T06:06:37.318Z,80.19
2023-08-13T06:07:07.310Z,80.19
2023-08-13T06:07:37.287Z,80.19
2023-08-13T06:08:07.261Z,80.19
2023-08-13T06:08:37.268Z,79.99
2023-08-13T06:09:07.286Z,79.99
2023-08-13T06:09:37.985Z,79.38
2023-08-13T06:10:07.266Z,79.58
2023-08-13T06:10:37.987Z,79.68
2023-08-13T06:11:07.252Z,79.79
2023-08-13T06:11:37.238Z,79.68
2023-08-13T06:12:07.283Z,79.79
2023-08-13T06:12:37.238Z,79.88
2023-08-13T06:13:07.236Z,79.79
2023-08-13T06:13:37.220Z,79.58
2023-08-13T06:14:07.252Z,79.28
2023-08-13T06:14:37.219Z,79.38
2023-08-13T06:15:07.202Z,79.48
2023-08-13T06:15:37.313Z,79.58
2023-08-13T06:16:07.516Z,79.68
2023-08-13T06:16:37.240Z,79.68
2023-08-13T06:17:14.229Z,79.79
2023-08-13T06:17:37.201Z,79.85
2023-08-13T06:18:07.222Z,79.64
2023-08-13T06:18:37.165Z,79.54
2023-08-13T06:19:07.202Z,79.54
2023-08-13T06:19:37.167Z,79.44
2023-08-13T06:20:07.149Z,79.54
2023-08-13T06:20:37.246Z,79.54
2023-08-13T06:21:07.133Z,79.04
2023-08-13T06:21:37.132Z,79.14
2023-08-13T06:22:07.140Z,79.14
2023-08-13T06:22:37.194Z,79.14
2023-08-13T06:23:07.119Z,79.14
2023-08-13T06:23:37.116Z,79.14
2023-08-13T06:24:07.097Z,79.14
2023-08-13T06:24:37.174Z,79.24
2023-08-13T06:25:07.121Z,79.44
2023-08-13T06:25:37.088Z,79.44
2023-08-13T06:26:07.100Z,79.54
2023-08-13T06:26:37.074Z,79.64